Time;durP1;ratioP1;P1;durP2;ratioP2;P2;SDS_P1;SDS_P2;PMS_P1;PMS_P2;Temp;Humidity;BMP_temperature;BMP_pressure;BME280_temperature;BME280_humidity;BME280_pressure;Samples;Min_cycle;Max_cycle;Signal;HPM_P1;HPM_P2
2023/05/05 00:02:15;;;;;;;11.48;8.40;;;;;;;;;;762441;180;903905;-75
2023/05/05 00:04:41;;;;;;;9.80;8.63;;;;;;;;;;759805;183;931210;-76
2023/05/05 00:07:07;;;;;;;13.50;8.60;;;;;;;;;;763705;182;924147;-76
2023/05/05 00:09:33;;;;;;;14.90;8.70;;;;;;;;;;763778;180;910807;-76
2023/05/05 00:11:59;;;;;;;12.47;9.43;;;;;;;;;;765575;180;906357;-76
2023/05/05 00:14:25;;;;;;;19.12;9.77;;;;;;;;;;760745;180;921720;-76
2023/05/05 00:16:51;;;;;;;12.73;9.37;;;;;;;;;;729777;189;927143;-76
2023/05/05 00:19:16;;;;;;;13.57;9.30;;;;;;;;;;740675;187;919733;-76
2023/05/05 00:21:42;;;;;;;11.73;9.05;;;;;;;;;;740629;187;831520;-76
2023/05/05 00:24:09;;;;;;;10.63;8.70;;;;;;;;;;763982;180;919167;-76
2023/05/05 00:26:34;;;;;;;13.00;9.03;;;;;;;;;;763021;181;919273;-77
2023/05/05 00:29:00;;;;;;;9.80;8.70;;;;;;;;;;754961;180;917951;-76
2023/05/05 00:31:25;;;;;;;14.83;9.77;;;;;;;;;;758149;183;918005;-77
2023/05/05 00:33:51;;;;;;;13.97;9.40;;;;;;;;;;760362;182;1097825;-76
2023/05/05 00:36:17;;;;;;;15.80;10.20;;;;;;;;;;763813;183;806937;-76
2023/05/05 00:38:43;;;;;;;14.43;9.73;;;;;;;;;;762973;180;816769;-77
2023/05/05 00:41:09;;;;;;;11.35;9.25;;;;;;;;;;753211;183;914614;-77
2023/05/05 00:43:35;;;;;;;11.10;9.10;;;;;;;;;;757787;181;918556;-76
2023/05/05 00:46:01;;;;;;;17.20;10.10;;;;;;;;;;762476;180;921383;-76
2023/05/05 00:48:26;;;;;;;18.77;9.00;;;;;;;;;;763599;181;919689;-76
2023/05/05 00:50:52;;;;;;;15.87;8.60;;;;;;;;;;766475;181;800841;-77
2023/05/05 00:53:18;;;;;;;13.67;10.63;;;;;;;;;;758449;181;941852;-77
2023/05/05 00:55:45;;;;;;;12.77;9.47;;;;;;;;;;755981;181;919448;-76
2023/05/05 00:58:10;;;;;;;11.23;8.43;;;;;;;;;;760953;180;917582;-76
2023/05/05 01:00:36;;;;;;;16.70;9.90;;;;;;;;;;763694;180;922163;-76
2023/05/05 01:03:01;;;;;;;13.50;9.13;;;;;;;;;;754783;180;1022159;-76
2023/05/05 01:05:27;;;;;;;12.97;8.70;;;;;;;;;;764185;181;919421;-76
2023/05/05 01:07:57;;;;;;;15.70;10.80;;;;;;;;;;765848;181;918989;-77
2023/05/05 01:10:22;;;;;;;15.82;11.45;;;;;;;;;;762970;180;915137;-77
2023/05/05 01:13:06;;;;;;;13.87;10.40;;;;;;;;;;763664;180;920245;-77
2023/05/05 01:15:32;;;;;;;14.90;11.63;;;;;;;;;;761872;181;917738;-76
2023/05/05 01:17:59;;;;;;;18.85;13.30;;;;;;;;;;764777;183;919966;-76
2023/05/05 01:20:25;;;;;;;19.30;12.87;;;;;;;;;;775998;182;896545;-76
2023/05/05 01:22:51;;;;;;;17.43;12.37;;;;;;;;;;765183;183;919045;-77
2023/05/05 01:25:23;;;;;;;17.97;11.97;;;;;;;;;;764438;183;871769;-76
2023/05/05 01:27:51;;;;;;;13.47;10.43;;;;;;;;;;760736;183;922163;-76
2023/05/05 01:30:16;;;;;;;16.30;9.03;;;;;;;;;;732270;189;820552;-76
2023/05/05 01:32:43;;;;;;;14.37;10.70;;;;;;;;;;763543;180;911574;-76
2023/05/05 01:35:09;;;;;;;13.27;10.43;;;;;;;;;;763409;182;816103;-76
2023/05/05 01:37:36;;;;;;;13.87;10.63;;;;;;;;;;769520;181;787920;-77
2023/05/05 01:40:02;;;;;;;14.57;11.93;;;;;;;;;;762325;181;917888;-76
2023/05/05 01:42:28;;;;;;;16.20;13.03;;;;;;;;;;756462;181;912104;-76
2023/05/05 01:44:54;;;;;;;14.53;9.87;;;;;;;;;;770846;180;912757;-77
2023/05/05 01:47:20;;;;;;;13.73;10.88;;;;;;;;;;760527;181;918899;-76
2023/05/05 01:49:46;;;;;;;13.27;10.20;;;;;;;;;;767849;181;926813;-76
2023/05/05 01:52:12;;;;;;;19.63;11.67;;;;;;;;;;765946;182;814173;-76
2023/05/05 01:54:38;;;;;;;20.10;10.80;;;;;;;;;;752268;183;920336;-76
2023/05/05 01:57:03;;;;;;;13.50;10.40;;;;;;;;;;758452;181;918973;-77
2023/05/05 01:59:29;;;;;;;13.00;10.60;;;;;;;;;;768113;183;918276;-76
2023/05/05 02:01:55;;;;;;;19.00;11.50;;;;;;;;;;765042;181;941592;-77
2023/05/05 02:04:21;;;;;;;15.20;11.80;;;;;;;;;;765970;181;920137;-76
2023/05/05 02:06:49;;;;;;;19.40;13.10;;;;;;;;;;760453;181;920008;-76
2023/05/05 02:09:13;;;;;;;15.90;11.87;;;;;;;;;;759768;183;1019407;-76
2023/05/05 02:11:38;;;;;;;17.40;12.37;;;;;;;;;;765155;181;937066;-75
2023/05/05 02:14:04;;;;;;;21.33;11.63;;;;;;;;;;756279;181;921151;-75
2023/05/05 02:16:30;;;;;;;15.17;11.40;;;;;;;;;;770931;183;914194;-75
2023/05/05 02:18:56;;;;;;;19.53;13.13;;;;;;;;;;761094;181;912867;-75
2023/05/05 02:21:22;;;;;;;14.67;11.60;;;;;;;;;;765158;180;916717;-75
2023/05/05 02:23:50;;;;;;;16.95;11.73;;;;;;;;;;761212;181;912271;-75
2023/05/05 02:26:14;;;;;;;17.17;11.77;;;;;;;;;;756702;180;913023;-75
2023/05/05 02:28:41;;;;;;;17.40;11.40;;;;;;;;;;759508;183;909763;-76
2023/05/05 02:31:07;;;;;;;14.97;9.97;;;;;;;;;;760930;180;919030;-75
2023/05/05 02:33:33;;;;;;;12.70;9.77;;;;;;;;;;764938;183;816933;-76
2023/05/05 02:35:59;;;;;;;14.90;11.07;;;;;;;;;;758657;180;817969;-75
2023/05/05 02:38:25;;;;;;;15.40;10.03;;;;;;;;;;762569;180;817419;-75
2023/05/05 02:40:51;;;;;;;15.50;10.40;;;;;;;;;;770983;180;818440;-75
2023/05/05 02:43:16;;;;;;;15.73;9.60;;;;;;;;;;762191;181;1019505;-75
2023/05/05 02:45:42;;;;;;;13.90;9.47;;;;;;;;;;761442;180;1019957;-75
2023/05/05 02:48:10;;;;;;;14.30;10.23;;;;;;;;;;765435;180;913282;-76
2023/05/05 02:50:34;;;;;;;17.43;10.90;;;;;;;;;;756648;181;916928;-75
2023/05/05 02:53:00;;;;;;;12.40;10.37;;;;;;;;;;761993;183;913921;-77
2023/05/05 02:55:26;;;;;;;13.83;10.17;;;;;;;;;;762650;182;918602;-75
2023/05/05 02:57:59;;;;;;;12.40;9.23;;;;;;;;;;766861;180;915354;-76
2023/05/05 03:00:25;;;;;;;15.60;10.80;;;;;;;;;;754138;182;1023158;-77
2023/05/05 03:02:53;;;;;;;19.17;9.47;;;;;;;;;;738014;187;1124239;-76
2023/05/05 03:05:19;;;;;;;11.47;9.20;;;;;;;;;;752462;186;652209;-75
2023/05/05 03:08:00;;;;;;;13.40;8.67;;;;;;;;;;747207;186;726573;-77
2023/05/05 03:10:26;;;;;;;12.80;9.07;;;;;;;;;;771113;181;754403;-75
2023/05/05 03:12:52;;;;;;;11.50;9.73;;;;;;;;;;758370;183;915337;-77
2023/05/05 03:15:18;;;;;;;14.43;10.10;;;;;;;;;;764071;183;1017816;-75
2023/05/05 03:17:45;;;;;;;11.60;8.63;;;;;;;;;;765863;180;806552;-76
2023/05/05 03:20:11;;;;;;;14.17;8.90;;;;;;;;;;765546;181;916220;-75
2023/05/05 03:22:36;;;;;;;16.00;9.43;;;;;;;;;;764505;181;812927;-76
2023/05/05 03:25:02;;;;;;;11.40;9.30;;;;;;;;;;765836;181;906810;-76
2023/05/05 03:27:28;;;;;;;11.93;9.30;;;;;;;;;;752988;181;915071;-76
2023/05/05 03:29:54;;;;;;;17.97;9.50;;;;;;;;;;757719;181;814526;-76
2023/05/05 03:32:22;;;;;;;12.53;9.27;;;;;;;;;;755623;181;902994;-75
2023/05/05 03:34:46;;;;;;;13.10;9.07;;;;;;;;;;769840;180;916173;-76
2023/05/05 03:37:11;;;;;;;14.57;10.23;;;;;;;;;;756589;183;933174;-76
2023/05/05 03:39:37;;;;;;;14.50;10.30;;;;;;;;;;759791;183;919078;-75
2023/05/05 03:42:03;;;;;;;13.40;10.70;;;;;;;;;;767833;180;920027;-76
2023/05/05 03:44:29;;;;;;;14.87;9.67;;;;;;;;;;740618;186;1009099;-77
2023/05/05 03:46:55;;;;;;;13.90;9.50;;;;;;;;;;766192;182;918406;-75
2023/05/05 03:49:21;;;;;;;15.03;10.43;;;;;;;;;;763801;182;918215;-76
2023/05/05 03:51:47;;;;;;;21.47;10.27;;;;;;;;;;764140;181;920168;-76
2023/05/05 03:54:12;;;;;;;15.18;9.55;;;;;;;;;;764438;182;1018069;-76
2023/05/05 03:56:39;;;;;;;15.82;10.25;;;;;;;;;;760416;183;917218;-75
2023/05/05 03:59:05;;;;;;;15.35;10.25;;;;;;;;;;763930;183;815724;-76
2023/05/05 04:01:30;;;;;;;14.60;9.33;;;;;;;;;;745861;186;836197;-76
2023/05/05 04:03:56;;;;;;;12.27;8.57;;;;;;;;;;764897;180;915428;-75
2023/05/05 04:06:22;;;;;;;11.00;8.30;;;;;;;;;;763817;180;913370;-76
2023/05/05 04:08:48;;;;;;;12.37;9.37;;;;;;;;;;763538;181;923827;-76
2023/05/05 04:11:14;;;;;;;16.70;9.57;;;;;;;;;;763640;180;914751;-76
2023/05/05 04:13:40;;;;;;;11.97;9.80;;;;;;;;;;769630;181;881545;-78
2023/05/05 04:16:06;;;;;;;14.10;9.97;;;;;;;;;;762501;180;931870;-76
2023/05/05 04:18:31;;;;;;;13.70;9.85;;;;;;;;;;762347;181;910953;-75
2023/05/05 04:20:57;;;;;;;15.67;10.17;;;;;;;;;;763413;181;812674;-76
2023/05/05 04:23:23;;;;;;;14.98;9.80;;;;;;;;;;761894;183;913164;-76
2023/05/05 04:25:49;;;;;;;13.77;9.30;;;;;;;;;;759056;181;1041955;-76
2023/05/05 04:28:15;;;;;;;15.87;11.37;;;;;;;;;;758446;181;913708;-76
2023/05/05 04:30:41;;;;;;;13.73;9.83;;;;;;;;;;762743;183;862388;-77
2023/05/05 04:33:07;;;;;;;12.97;8.70;;;;;;;;;;766346;181;910835;-77
2023/05/05 04:35:33;;;;;;;13.77;8.50;;;;;;;;;;766833;181;811759;-77
2023/05/05 04:37:58;;;;;;;12.18;8.25;;;;;;;;;;766506;183;914131;-76
2023/05/05 04:40:25;;;;;;;12.80;8.87;;;;;;;;;;761547;181;819911;-76
2023/05/05 04:42:50;;;;;;;17.98;9.20;;;;;;;;;;765293;181;909263;-76
2023/05/05 04:45:16;;;;;;;9.47;7.13;;;;;;;;;;762124;183;919408;-76
2023/05/05 04:47:42;;;;;;;15.70;8.00;;;;;;;;;;762443;180;914393;-75
2023/05/05 04:50:08;;;;;;;15.53;8.03;;;;;;;;;;764415;181;755438;-77
2023/05/05 04:52:34;;;;;;;9.20;7.33;;;;;;;;;;754528;180;971724;-76
2023/05/05 04:55:00;;;;;;;11.17;7.17;;;;;;;;;;773338;182;913477;-76
2023/05/05 04:57:26;;;;;;;11.63;7.63;;;;;;;;;;759410;180;832231;-77
2023/05/05 04:59:51;;;;;;;9.93;7.20;;;;;;;;;;755229;182;882663;-77
2023/05/05 05:02:17;;;;;;;14.97;8.73;;;;;;;;;;770234;180;919448;-76
2023/05/05 05:04:43;;;;;;;11.50;7.17;;;;;;;;;;757482;180;842759;-76
2023/05/05 05:07:09;;;;;;;10.17;7.70;;;;;;;;;;759083;180;1017263;-76
2023/05/05 05:09:35;;;;;;;13.70;7.90;;;;;;;;;;767521;181;913148;-76
2023/05/05 05:12:01;;;;;;;14.17;7.87;;;;;;;;;;761682;180;1006821;-77
2023/05/05 05:14:27;;;;;;;10.43;7.45;;;;;;;;;;763986;180;955384;-77
2023/05/05 05:16:53;;;;;;;12.53;7.30;;;;;;;;;;762763;180;810622;-76
2023/05/05 05:19:18;;;;;;;10.37;7.60;;;;;;;;;;766078;182;943726;-76
2023/05/05 05:21:44;;;;;;;12.10;7.77;;;;;;;;;;761997;180;916948;-77
2023/05/05 05:24:10;;;;;;;7.18;5.93;;;;;;;;;;761013;181;916923;-76
2023/05/05 05:26:36;;;;;;;9.20;6.23;;;;;;;;;;763853;181;914199;-76
2023/05/05 05:29:02;;;;;;;13.57;8.75;;;;;;;;;;763432;180;918986;-76
2023/05/05 05:31:28;;;;;;;8.73;7.60;;;;;;;;;;761391;181;899934;-77
2023/05/05 05:33:55;;;;;;;10.23;7.20;;;;;;;;;;761943;180;936339;-77
2023/05/05 05:36:19;;;;;;;10.20;8.10;;;;;;;;;;767857;182;621977;-76
2023/05/05 05:38:45;;;;;;;9.30;7.23;;;;;;;;;;761837;181;808966;-77
2023/05/05 05:41:11;;;;;;;8.05;6.65;;;;;;;;;;769144;181;707930;-76
2023/05/05 05:43:37;;;;;;;8.97;5.90;;;;;;;;;;766123;181;867537;-76
2023/05/05 05:46:03;;;;;;;8.73;5.83;;;;;;;;;;765452;181;817063;-77
2023/05/05 05:48:28;;;;;;;11.03;5.80;;;;;;;;;;764551;180;809014;-76
2023/05/05 05:50:55;;;;;;;9.73;6.20;;;;;;;;;;769010;181;813715;-76
2023/05/05 05:53:20;;;;;;;10.80;6.70;;;;;;;;;;757866;181;817837;-76
2023/05/05 05:55:46;;;;;;;8.40;6.63;;;;;;;;;;759590;181;815885;-76
2023/05/05 05:58:12;;;;;;;12.60;6.37;;;;;;;;;;763893;181;754774;-77
2023/05/05 06:00:38;;;;;;;7.00;6.20;;;;;;;;;;741427;187;939868;-77
2023/05/05 06:03:03;;;;;;;7.40;6.10;;;;;;;;;;769667;180;907280;-77
2023/05/05 06:05:30;;;;;;;8.27;5.87;;;;;;;;;;765751;182;897719;-77
2023/05/05 06:07:55;;;;;;;9.67;6.10;;;;;;;;;;758926;180;962412;-77
2023/05/05 06:10:21;;;;;;;10.50;7.70;;;;;;;;;;757508;180;910727;-77
2023/05/05 06:12:47;;;;;;;9.30;6.10;;;;;;;;;;760106;180;912063;-76
2023/05/05 06:15:13;;;;;;;8.30;6.37;;;;;;;;;;770145;177;918173;-77
2023/05/05 06:17:39;;;;;;;10.00;6.57;;;;;;;;;;752350;180;913019;-77
2023/05/05 06:20:05;;;;;;;9.57;7.60;;;;;;;;;;759594;182;912571;-77
2023/05/05 06:22:31;;;;;;;10.37;6.87;;;;;;;;;;756456;181;912033;-78
2023/05/05 06:24:57;;;;;;;9.95;7.18;;;;;;;;;;742799;187;912083;-77
2023/05/05 06:27:22;;;;;;;10.13;7.17;;;;;;;;;;735576;189;907985;-77
2023/05/05 06:29:48;;;;;;;10.43;7.20;;;;;;;;;;740057;188;910371;-77
2023/05/05 06:32:14;;;;;;;12.25;8.55;;;;;;;;;;746935;187;913532;-77
2023/05/05 06:34:41;;;;;;;10.87;7.40;;;;;;;;;;758217;181;925918;-76
2023/05/05 06:37:06;;;;;;;12.17;8.67;;;;;;;;;;766631;183;908865;-76
2023/05/05 06:39:32;;;;;;;13.10;9.17;;;;;;;;;;769014;181;915633;-77
2023/05/05 06:41:58;;;;;;;12.37;8.50;;;;;;;;;;759008;182;829888;-77
2023/05/05 06:44:23;;;;;;;14.27;9.90;;;;;;;;;;760039;183;910249;-77
2023/05/05 06:46:50;;;;;;;12.30;8.93;;;;;;;;;;768537;182;919419;-77
2023/05/05 06:49:15;;;;;;;10.83;8.50;;;;;;;;;;756236;183;918652;-76
2023/05/05 06:51:41;;;;;;;22.48;10.68;;;;;;;;;;756292;181;834551;-77
2023/05/05 06:54:07;;;;;;;11.50;9.57;;;;;;;;;;760442;181;916807;-77
2023/05/05 06:56:33;;;;;;;13.13;9.30;;;;;;;;;;756690;183;919635;-77
2023/05/05 06:58:59;;;;;;;19.40;9.70;;;;;;;;;;760065;181;820150;-77
2023/05/05 07:01:24;;;;;;;14.02;9.60;;;;;;;;;;762091;181;1020366;-78
2023/05/05 07:03:51;;;;;;;15.10;9.70;;;;;;;;;;763743;181;915106;-77
2023/05/05 07:06:16;;;;;;;12.63;9.27;;;;;;;;;;762076;181;918729;-77
2023/05/05 07:08:42;;;;;;;13.23;8.97;;;;;;;;;;762170;182;817197;-77
2023/05/05 07:11:08;;;;;;;11.53;9.83;;;;;;;;;;764935;181;918472;-78
2023/05/05 07:13:34;;;;;;;12.97;9.20;;;;;;;;;;764766;181;918733;-78
2023/05/05 07:15:59;;;;;;;11.20;8.13;;;;;;;;;;759097;183;930498;-78
2023/05/05 07:18:25;;;;;;;11.10;8.30;;;;;;;;;;773822;182;1021933;-78
2023/05/05 07:20:51;;;;;;;11.43;9.13;;;;;;;;;;768211;183;813211;-78
2023/05/05 07:23:17;;;;;;;9.02;7.05;;;;;;;;;;772901;182;710495;-77
2023/05/05 07:25:43;;;;;;;13.17;8.33;;;;;;;;;;788535;180;26467;-78
2023/05/05 07:28:09;;;;;;;15.10;8.27;;;;;;;;;;779978;181;711630;-77
2023/05/05 07:30:35;;;;;;;11.77;6.50;;;;;;;;;;764627;182;912136;-77
2023/05/05 07:33:00;;;;;;;8.40;6.70;;;;;;;;;;773712;181;818185;-75
2023/05/05 07:35:26;;;;;;;9.87;6.03;;;;;;;;;;770294;182;767235;-77
2023/05/05 07:37:52;;;;;;;10.30;7.30;;;;;;;;;;770705;182;777313;-77
2023/05/05 07:40:18;;;;;;;20.03;6.27;;;;;;;;;;764837;182;776046;-77
2023/05/05 07:42:46;;;;;;;13.77;6.47;;;;;;;;;;768238;183;712812;-76
2023/05/05 07:45:10;;;;;;;10.07;6.13;;;;;;;;;;760123;181;995492;-77
2023/05/05 07:47:35;;;;;;;8.03;5.97;;;;;;;;;;762377;181;916238;-77
2023/05/05 07:50:01;;;;;;;9.50;5.80;;;;;;;;;;769058;181;919303;-77
2023/05/05 07:52:27;;;;;;;12.23;5.80;;;;;;;;;;764119;181;875718;-77
2023/05/05 07:54:53;;;;;;;10.40;6.30;;;;;;;;;;764492;180;918137;-77
2023/05/05 07:57:19;;;;;;;8.00;5.30;;;;;;;;;;768250;183;920823;-77
2023/05/05 07:59:45;;;;;;;9.67;6.53;;;;;;;;;;759886;181;1020767;-77
2023/05/05 08:02:11;;;;;;;10.30;5.87;;;;;;;;;;761140;183;818545;-77
2023/05/05 08:04:36;;;;;;;9.80;6.30;;;;;;;;;;762116;181;852722;-77
2023/05/05 08:07:02;;;;;;;7.53;5.77;;;;;;;;;;762863;181;918385;-77
2023/05/05 08:09:28;;;;;;;9.90;5.50;;;;;;;;;;763010;181;816482;-76
2023/05/05 08:11:54;;;;;;;13.00;6.25;;;;;;;;;;761592;180;1126472;-76
2023/05/05 08:14:20;;;;;;;8.73;6.33;;;;;;;;;;770053;180;1124699;-77
2023/05/05 08:16:46;;;;;;;6.97;5.60;;;;;;;;;;763494;181;918163;-77
2023/05/05 08:19:12;;;;;;;7.13;5.00;;;;;;;;;;762812;182;910276;-77
2023/05/05 08:21:38;;;;;;;10.03;5.57;;;;;;;;;;769477;180;664425;-77
2023/05/05 08:24:03;;;;;;;9.50;5.00;;;;;;;;;;751553;181;918876;-77
2023/05/05 08:26:29;;;;;;;8.10;5.67;;;;;;;;;;747266;186;1019225;-77
2023/05/05 08:28:59;;;;;;;9.67;5.77;;;;;;;;;;760718;182;917032;-76
2023/05/05 08:31:21;;;;;;;6.73;4.77;;;;;;;;;;764388;183;921436;-77
2023/05/05 08:33:47;;;;;;;12.17;4.70;;;;;;;;;;757327;183;937869;-77
2023/05/05 08:36:13;;;;;;;6.63;4.43;;;;;;;;;;745486;183;812887;-76
2023/05/05 08:38:38;;;;;;;8.50;4.90;;;;;;;;;;770273;182;815195;-77
2023/05/05 08:41:05;;;;;;;9.07;4.70;;;;;;;;;;764714;181;873211;-77
2023/05/05 08:43:31;;;;;;;6.33;4.50;;;;;;;;;;756555;181;919484;-77
2023/05/05 08:45:56;;;;;;;9.37;4.67;;;;;;;;;;770232;180;809749;-79
2023/05/05 08:48:22;;;;;;;5.43;4.20;;;;;;;;;;764186;181;918351;-77
2023/05/05 08:50:48;;;;;;;5.47;4.27;;;;;;;;;;767107;181;918726;-77
2023/05/05 08:53:15;;;;;;;5.30;3.77;;;;;;;;;;761144;181;917847;-76
2023/05/05 08:55:41;;;;;;;6.60;3.90;;;;;;;;;;753897;183;809840;-77
2023/05/05 08:58:06;;;;;;;6.33;3.50;;;;;;;;;;762857;183;815125;-76
2023/05/05 09:00:32;;;;;;;6.50;3.60;;;;;;;;;;764512;183;853034;-76
2023/05/05 09:02:58;;;;;;;7.77;4.33;;;;;;;;;;770820;181;852857;-77
2023/05/05 09:05:24;;;;;;;5.57;3.30;;;;;;;;;;764747;181;917595;-77
2023/05/05 09:07:50;;;;;;;4.20;3.03;;;;;;;;;;753321;183;933918;-77
2023/05/05 09:10:16;;;;;;;6.13;3.60;;;;;;;;;;759578;181;1127124;-78
2023/05/05 09:12:42;;;;;;;7.10;3.20;;;;;;;;;;762912;181;919282;-77
2023/05/05 09:15:09;;;;;;;5.50;3.30;;;;;;;;;;760996;182;924048;-77
2023/05/05 09:17:35;;;;;;;5.53;3.50;;;;;;;;;;760022;181;918937;-77
2023/05/05 09:20:02;;;;;;;4.25;2.78;;;;;;;;;;770266;181;858537;-77
2023/05/05 09:22:32;;;;;;;5.57;3.10;;;;;;;;;;760677;180;919590;-77
2023/05/05 09:24:58;;;;;;;4.57;3.00;;;;;;;;;;756677;181;915133;-77
2023/05/05 09:27:24;;;;;;;4.67;3.00;;;;;;;;;;770446;181;927083;-77
2023/05/05 09:29:49;;;;;;;4.63;3.10;;;;;;;;;;764027;180;937067;-77
2023/05/05 09:32:15;;;;;;;11.47;3.37;;;;;;;;;;763518;180;819136;-77
2023/05/05 09:34:41;;;;;;;5.93;3.37;;;;;;;;;;759489;181;908086;-76
2023/05/05 09:37:07;;;;;;;4.90;3.30;;;;;;;;;;750576;183;1331538;-77
2023/05/05 09:39:33;;;;;;;4.30;2.90;;;;;;;;;;760406;182;793588;-77
2023/05/05 09:41:59;;;;;;;4.37;3.07;;;;;;;;;;765244;182;957111;-76
2023/05/05 09:44:30;;;;;;;6.00;2.77;;;;;;;;;;766345;182;917411;-77
2023/05/05 09:46:57;;;;;;;6.30;3.17;;;;;;;;;;763553;180;912722;-76
2023/05/05 09:49:24;;;;;;;6.43;3.10;;;;;;;;;;764186;180;900756;-77
2023/05/05 09:51:48;;;;;;;10.02;3.12;;;;;;;;;;766417;180;907415;-76
2023/05/05 09:54:20;;;;;;;11.23;3.03;;;;;;;;;;756463;180;819100;-77
2023/05/05 09:56:46;;;;;;;6.03;3.30;;;;;;;;;;761210;182;917261;-77
2023/05/05 09:59:12;;;;;;;13.73;3.20;;;;;;;;;;764022;182;835111;-77
2023/05/05 10:01:38;;;;;;;6.27;3.40;;;;;;;;;;763146;181;917964;-77
2023/05/05 10:04:05;;;;;;;4.20;2.83;;;;;;;;;;764512;180;919104;-77
2023/05/05 10:06:37;;;;;;;9.32;3.37;;;;;;;;;;761886;183;946358;-77
2023/05/05 10:09:02;;;;;;;7.33;4.03;;;;;;;;;;765054;181;918133;-77
2023/05/05 10:11:28;;;;;;;4.70;2.63;;;;;;;;;;766838;181;919337;-77
2023/05/05 10:13:54;;;;;;;8.77;3.17;;;;;;;;;;762238;181;919078;-78
2023/05/05 10:16:20;;;;;;;7.33;3.60;;;;;;;;;;759485;181;927733;-77
2023/05/05 10:18:46;;;;;;;5.20;3.00;;;;;;;;;;768501;181;917772;-76
2023/05/05 10:21:12;;;;;;;7.70;3.67;;;;;;;;;;756652;181;918263;-76
2023/05/05 10:23:38;;;;;;;7.00;2.93;;;;;;;;;;765668;179;818710;-78
2023/05/05 10:26:05;;;;;;;5.43;3.00;;;;;;;;;;759323;181;917085;-76
2023/05/05 10:28:31;;;;;;;5.03;3.13;;;;;;;;;;769485;180;816476;-79
2023/05/05 10:30:57;;;;;;;6.10;3.90;;;;;;;;;;757496;181;922662;-78
2023/05/05 10:33:22;;;;;;;6.23;2.80;;;;;;;;;;758548;181;941374;-77
2023/05/05 10:35:48;;;;;;;3.80;2.97;;;;;;;;;;765705;181;916977;-78
2023/05/05 10:38:14;;;;;;;4.60;3.37;;;;;;;;;;759609;181;912188;-78
2023/05/05 10:40:44;;;;;;;8.27;4.67;;;;;;;;;;766244;180;815999;-77
2023/05/05 10:43:09;;;;;;;5.07;2.90;;;;;;;;;;766525;182;913499;-76
2023/05/05 10:45:35;;;;;;;8.00;3.00;;;;;;;;;;762956;181;918595;-77
2023/05/05 10:48:01;;;;;;;12.77;3.90;;;;;;;;;;760404;181;919351;-78
2023/05/05 10:50:26;;;;;;;19.87;3.80;;;;;;;;;;766744;180;918011;-77
2023/05/05 10:52:54;;;;;;;8.00;2.70;;;;;;;;;;772382;180;921059;-78
2023/05/05 10:55:20;;;;;;;7.40;3.70;;;;;;;;;;764074;180;936991;-78
2023/05/05 10:57:46;;;;;;;7.80;2.53;;;;;;;;;;762499;180;920226;-77
2023/05/05 11:00:13;;;;;;;16.87;2.80;;;;;;;;;;759778;182;917183;-77
2023/05/05 11:02:39;;;;;;;7.00;3.00;;;;;;;;;;732118;190;921736;-77
2023/05/05 11:05:08;;;;;;;3.78;2.65;;;;;;;;;;764909;182;915436;-76
2023/05/05 11:07:34;;;;;;;4.77;2.90;;;;;;;;;;759658;181;918801;-77
2023/05/05 11:10:00;;;;;;;4.87;2.90;;;;;;;;;;771330;182;917637;-77
2023/05/05 11:12:26;;;;;;;4.30;2.80;;;;;;;;;;757858;180;913759;-77
2023/05/05 11:14:58;;;;;;;4.03;2.70;;;;;;;;;;759138;182;916972;-78
2023/05/05 11:17:29;;;;;;;4.70;3.23;;;;;;;;;;760707;182;842313;-77
2023/05/05 11:19:55;;;;;;;4.93;3.20;;;;;;;;;;771848;182;829707;-78
2023/05/05 11:22:21;;;;;;;4.13;2.67;;;;;;;;;;766939;182;919571;-77
2023/05/05 11:24:47;;;;;;;12.80;4.03;;;;;;;;;;759277;183;919077;-77
2023/05/05 11:27:13;;;;;;;8.70;4.33;;;;;;;;;;762035;183;818948;-77
2023/05/05 11:29:45;;;;;;;5.53;3.20;;;;;;;;;;761599;181;841949;-76
2023/05/05 11:32:10;;;;;;;19.83;3.70;;;;;;;;;;754546;183;918502;-77
2023/05/05 11:34:36;;;;;;;5.37;2.70;;;;;;;;;;728388;191;917995;-76
2023/05/05 11:37:02;;;;;;;5.67;3.03;;;;;;;;;;760220;183;2152282;-77
2023/05/05 11:39:28;;;;;;;6.10;2.90;;;;;;;;;;759125;181;907002;-77
2023/05/05 11:41:57;;;;;;;5.40;3.10;;;;;;;;;;763281;181;1011550;-77
2023/05/05 11:44:29;;;;;;;10.47;4.50;;;;;;;;;;768768;182;769742;-78
2023/05/05 11:47:02;;;;;;;36.07;5.90;;;;;;;;;;771591;181;818015;-77
2023/05/05 11:49:36;;;;;;;7.07;2.83;;;;;;;;;;761716;183;941283;-78
2023/05/05 11:52:03;;;;;;;4.80;2.37;;;;;;;;;;761494;181;939920;-79
2023/05/05 11:54:29;;;;;;;4.70;2.90;;;;;;;;;;762248;180;918274;-77
2023/05/05 11:56:54;;;;;;;11.30;4.83;;;;;;;;;;762413;181;853260;-79
2023/05/05 11:59:20;;;;;;;4.73;3.10;;;;;;;;;;762235;181;896677;-79
2023/05/05 12:01:46;;;;;;;10.30;3.80;;;;;;;;;;760178;180;934094;-77
2023/05/05 12:04:12;;;;;;;5.13;2.97;;;;;;;;;;770642;179;916217;-78
2023/05/05 12:06:38;;;;;;;6.53;3.30;;;;;;;;;;757172;180;922778;-79
2023/05/05 12:09:05;;;;;;;8.00;2.93;;;;;;;;;;767323;180;843411;-78
2023/05/05 12:11:30;;;;;;;5.07;3.07;;;;;;;;;;770153;180;718169;-77
2023/05/05 12:14:02;;;;;;;6.63;3.30;;;;;;;;;;766605;180;809597;-77
2023/05/05 12:16:28;;;;;;;5.03;3.00;;;;;;;;;;764770;180;918904;-78
2023/05/05 12:19:00;;;;;;;6.30;2.70;;;;;;;;;;762801;180;816562;-78
2023/05/05 12:21:25;;;;;;;4.90;2.83;;;;;;;;;;756745;184;1006143;-78
2023/05/05 12:23:51;;;;;;;14.02;3.75;;;;;;;;;;762197;183;919557;-78
2023/05/05 12:26:25;;;;;;;5.17;2.73;;;;;;;;;;762886;180;894055;-78
2023/05/05 12:28:51;;;;;;;18.65;3.92;;;;;;;;;;764296;181;923847;-78
2023/05/05 12:31:17;;;;;;;13.20;4.30;;;;;;;;;;767036;181;916116;-78
2023/05/05 12:33:43;;;;;;;7.90;2.50;;;;;;;;;;745198;184;1023580;-78
2023/05/05 12:36:08;;;;;;;10.13;2.80;;;;;;;;;;761983;183;916788;-78
2023/05/05 12:38:35;;;;;;;7.30;3.20;;;;;;;;;;765682;181;919604;-77
2023/05/05 12:41:00;;;;;;;8.00;2.87;;;;;;;;;;777411;179;990133;-78
2023/05/05 12:43:26;;;;;;;6.93;2.70;;;;;;;;;;762028;183;903254;-78
2023/05/05 12:46:13;;;;;;;4.77;2.10;;;;;;;;;;761627;183;918939;-78
2023/05/05 12:48:39;;;;;;;7.20;2.10;;;;;;;;;;764492;181;908859;-78
2023/05/05 12:51:08;;;;;;;25.33;3.90;;;;;;;;;;757886;181;825770;-78
2023/05/05 12:53:34;;;;;;;18.63;3.83;;;;;;;;;;760675;180;918990;-78
2023/05/05 12:56:00;;;;;;;3.80;2.90;;;;;;;;;;765214;180;924057;-77
2023/05/05 12:58:27;;;;;;;6.50;3.53;;;;;;;;;;765505;180;919017;-77
2023/05/05 13:00:58;;;;;;;4.43;3.00;;;;;;;;;;770555;183;1040392;-77
2023/05/05 13:03:24;;;;;;;11.63;3.07;;;;;;;;;;757611;181;817027;-78
2023/05/05 13:05:50;;;;;;;5.10;2.90;;;;;;;;;;759855;181;931444;-79
2023/05/05 13:08:17;;;;;;;2.90;1.90;;;;;;;;;;765772;181;888715;-79
2023/05/05 13:10:57;;;;;;;5.00;2.77;;;;;;;;;;759192;181;919874;-78
2023/05/05 13:13:23;;;;;;;4.10;2.63;;;;;;;;;;756648;181;816153;-78
2023/05/05 13:15:49;;;;;;;5.27;2.90;;;;;;;;;;763670;180;818267;-77
2023/05/05 13:18:15;;;;;;;4.30;2.37;;;;;;;;;;743314;187;832640;-77
2023/05/05 13:20:41;;;;;;;5.03;2.60;;;;;;;;;;742801;187;883440;-77
2023/05/05 13:23:07;;;;;;;4.77;2.97;;;;;;;;;;748676;186;919345;-78
2023/05/05 13:25:32;;;;;;;4.27;2.70;;;;;;;;;;763489;181;998016;-78
2023/05/05 13:27:58;;;;;;;3.60;2.60;;;;;;;;;;767122;183;746510;-78
2023/05/05 13:30:24;;;;;;;5.20;3.10;;;;;;;;;;763590;180;1220441;-79
2023/05/05 13:32:50;;;;;;;7.63;2.73;;;;;;;;;;761967;182;916523;-78
2023/05/05 13:35:16;;;;;;;5.97;2.80;;;;;;;;;;766138;180;911874;-78
2023/05/05 13:37:43;;;;;;;5.10;2.60;;;;;;;;;;765478;180;813476;-78
2023/05/05 13:40:08;;;;;;;6.10;3.00;;;;;;;;;;762088;182;803699;-79
2023/05/05 13:42:34;;;;;;;5.23;2.47;;;;;;;;;;768938;181;918236;-77
2023/05/05 13:45:00;;;;;;;7.30;2.77;;;;;;;;;;755159;181;919167;-78
2023/05/05 13:47:26;;;;;;;3.60;2.77;;;;;;;;;;759600;183;919465;-78
2023/05/05 13:49:52;;;;;;;6.00;2.80;;;;;;;;;;758803;181;919255;-78
2023/05/05 13:52:18;;;;;;;7.47;3.07;;;;;;;;;;762781;183;918282;-77
2023/05/05 13:54:43;;;;;;;4.47;2.67;;;;;;;;;;760719;180;924573;-78
2023/05/05 13:57:10;;;;;;;3.70;2.67;;;;;;;;;;751748;184;918729;-77
2023/05/05 13:59:35;;;;;;;4.30;2.40;;;;;;;;;;763783;181;918757;-77
2023/05/05 14:02:01;;;;;;;3.63;2.37;;;;;;;;;;765616;181;753013;-78
2023/05/05 14:04:27;;;;;;;3.90;2.40;;;;;;;;;;762583;180;918904;-78
2023/05/05 14:06:53;;;;;;;5.87;2.77;;;;;;;;;;761862;183;815541;-77
2023/05/05 14:09:19;;;;;;;6.00;2.60;;;;;;;;;;762969;183;816704;-79
2023/05/05 14:11:44;;;;;;;6.43;3.00;;;;;;;;;;762395;181;816782;-77
2023/05/05 14:14:10;;;;;;;3.33;2.37;;;;;;;;;;765958;183;848339;-77
2023/05/05 14:16:36;;;;;;;4.83;2.83;;;;;;;;;;761587;181;918516;-78